sensor_id;sensor_type;location;lat;lon;timestamp;pressure;altitude;pressure_sealevel;temperature;humidity
70589;BME280;58152;49.202;18.744;2023-04-22T00:00:42;97215.75;;;10.05;46.30
70589;BME280;58152;49.202;18.744;2023-04-22T00:03:08;97223.50;;;10.08;46.35
70589;BME280;58152;49.202;18.744;2023-04-22T00:05:34;97225.31;;;10.06;46.11
70589;BME280;58152;49.202;18.744;2023-04-22T00:07:59;97216.06;;;9.99;45.93
70589;BME280;58152;49.202;18.744;2023-04-22T00:10:25;97215.66;;;9.88;46.43
70589;BME280;58152;49.202;18.744;2023-04-22T00:12:51;97214.09;;;9.84;46.46
70589;BME280;58152;49.202;18.744;2023-04-22T00:15:16;97215.50;;;9.72;46.53
70589;BME280;58152;49.202;18.744;2023-04-22T00:17:46;97222.31;;;9.76;46.79
70589;BME280;58152;49.202;18.744;2023-04-22T00:20:11;97223.16;;;9.77;46.70
70589;BME280;58152;49.202;18.744;2023-04-22T00:22:37;97225.78;;;9.77;46.39
70589;BME280;58152;49.202;18.744;2023-04-22T00:25:02;97226.56;;;9.79;46.46
70589;BME280;58152;49.202;18.744;2023-04-22T00:27:28;97224.78;;;9.79;46.67
70589;BME280;58152;49.202;18.744;2023-04-22T00:29:53;97225.84;;;9.75;46.57
70589;BME280;58152;49.202;18.744;2023-04-22T00:32:19;97216.75;;;9.63;46.96
70589;BME280;58152;49.202;18.744;2023-04-22T00:34:46;97212.44;;;9.62;46.61
70589;BME280;58152;49.202;18.744;2023-04-22T00:37:12;97220.34;;;9.61;47.15
70589;BME280;58152;49.202;18.744;2023-04-22T00:39:37;97223.69;;;9.64;46.69
70589;BME280;58152;49.202;18.744;2023-04-22T00:42:05;97223.03;;;9.59;47.14
70589;BME280;58152;49.202;18.744;2023-04-22T00:44:31;97204.19;;;9.51;47.37
70589;BME280;58152;49.202;18.744;2023-04-22T00:46:57;97208.06;;;9.63;47.07
70589;BME280;58152;49.202;18.744;2023-04-22T00:49:25;97210.28;;;9.72;47.10
70589;BME280;58152;49.202;18.744;2023-04-22T00:51:51;97208.94;;;9.82;47.01
70589;BME280;58152;49.202;18.744;2023-04-22T00:54:16;97220.78;;;9.91;46.70
70589;BME280;58152;49.202;18.744;2023-04-22T00:56:42;97213.56;;;9.96;46.44
70589;BME280;58152;49.202;18.744;2023-04-22T00:59:08;97212.13;;;9.89;46.02
70589;BME280;58152;49.202;18.744;2023-04-22T01:01:35;97212.53;;;9.80;46.52
70589;BME280;58152;49.202;18.744;2023-04-22T01:04:01;97217.47;;;9.67;47.13
70589;BME280;58152;49.202;18.744;2023-04-22T01:06:28;97211.44;;;9.65;47.46
70589;BME280;58152;49.202;18.744;2023-04-22T01:08:57;97206.31;;;9.62;47.29
70589;BME280;58152;49.202;18.744;2023-04-22T01:11:23;97224.09;;;9.55;46.99
70589;BME280;58152;49.202;18.744;2023-04-22T01:13:48;97224.22;;;9.32;47.69
70589;BME280;58152;49.202;18.744;2023-04-22T01:16:14;97229.13;;;9.19;47.35
70589;BME280;58152;49.202;18.744;2023-04-22T01:18:39;97225.13;;;9.10;47.55
70589;BME280;58152;49.202;18.744;2023-04-22T01:21:05;97225.00;;;9.13;47.98
70589;BME280;58152;49.202;18.744;2023-04-22T01:23:31;97220.81;;;9.09;47.91
70589;BME280;58152;49.202;18.744;2023-04-22T01:25:58;97227.44;;;8.96;47.89
70589;BME280;58152;49.202;18.744;2023-04-22T01:28:24;97225.31;;;8.84;48.07
70589;BME280;58152;49.202;18.744;2023-04-22T01:30:50;97234.41;;;8.75;48.23
70589;BME280;58152;49.202;18.744;2023-04-22T01:33:17;97223.34;;;8.69;48.28
70589;BME280;58152;49.202;18.744;2023-04-22T01:35:43;97221.75;;;8.64;49.02
70589;BME280;58152;49.202;18.744;2023-04-22T01:38:10;97230.34;;;8.68;48.96
70589;BME280;58152;49.202;18.744;2023-04-22T01:40:37;97236.34;;;8.70;48.54
70589;BME280;58152;49.202;18.744;2023-04-22T01:43:03;97227.06;;;8.63;48.90
70589;BME280;58152;49.202;18.744;2023-04-22T01:45:28;97241.25;;;8.56;48.83
70589;BME280;58152;49.202;18.744;2023-04-22T01:47:57;97234.09;;;8.39;49.43
70589;BME280;58152;49.202;18.744;2023-04-22T01:50:22;97231.91;;;8.27;49.37
70589;BME280;58152;49.202;18.744;2023-04-22T01:52:48;97240.94;;;8.18;49.62
70589;BME280;58152;49.202;18.744;2023-04-22T01:55:14;97242.19;;;8.08;50.14
70589;BME280;58152;49.202;18.744;2023-04-22T01:57:40;97244.06;;;8.04;50.13
70589;BME280;58152;49.202;18.744;2023-04-22T02:00:07;97234.78;;;7.97;49.92
70589;BME280;58152;49.202;18.744;2023-04-22T02:02:33;97242.81;;;7.91;50.75
70589;BME280;58152;49.202;18.744;2023-04-22T02:04:58;97243.03;;;7.85;50.60
70589;BME280;58152;49.202;18.744;2023-04-22T02:07:24;97245.31;;;7.71;50.61
70589;BME280;58152;49.202;18.744;2023-04-22T02:09:50;97241.19;;;7.63;51.27
70589;BME280;58152;49.202;18.744;2023-04-22T02:12:15;97242.00;;;7.66;50.86
70589;BME280;58152;49.202;18.744;2023-04-22T02:14:41;97239.66;;;7.58;51.00
70589;BME280;58152;49.202;18.744;2023-04-22T02:17:06;97248.97;;;7.65;51.08
70589;BME280;58152;49.202;18.744;2023-04-22T02:19:32;97242.56;;;7.74;51.12
70589;BME280;58152;49.202;18.744;2023-04-22T02:21:57;97246.75;;;7.79;50.99
70589;BME280;58152;49.202;18.744;2023-04-22T02:24:23;97243.31;;;7.77;50.73
70589;BME280;58152;49.202;18.744;2023-04-22T02:26:48;97245.25;;;7.72;50.60
70589;BME280;58152;49.202;18.744;2023-04-22T02:29:14;97240.13;;;7.69;50.70
70589;BME280;58152;49.202;18.744;2023-04-22T02:31:40;97250.00;;;7.61;50.84
70589;BME280;58152;49.202;18.744;2023-04-22T02:34:06;97249.19;;;7.59;51.02
70589;BME280;58152;49.202;18.744;2023-04-22T02:36:31;97244.13;;;7.54;50.94
70589;BME280;58152;49.202;18.744;2023-04-22T02:38:59;97248.34;;;7.58;50.84
70589;BME280;58152;49.202;18.744;2023-04-22T02:41:25;97245.72;;;7.58;51.07
70589;BME280;58152;49.202;18.744;2023-04-22T02:43:50;97246.91;;;7.50;50.85
70589;BME280;58152;49.202;18.744;2023-04-22T02:46:16;97250.47;;;7.47;51.49
70589;BME280;58152;49.202;18.744;2023-04-22T02:48:41;97242.84;;;7.41;51.35
70589;BME280;58152;49.202;18.744;2023-04-22T02:51:07;97242.69;;;7.46;50.96
70589;BME280;58152;49.202;18.744;2023-04-22T02:53:33;97239.22;;;7.45;50.51
70589;BME280;58152;49.202;18.744;2023-04-22T02:55:58;97250.25;;;7.53;51.20
70589;BME280;58152;49.202;18.744;2023-04-22T02:58:24;97248.56;;;7.52;50.70
70589;BME280;58152;49.202;18.744;2023-04-22T03:00:51;97252.97;;;7.50;51.02
70589;BME280;58152;49.202;18.744;2023-04-22T03:03:16;97250.31;;;7.52;50.93
70589;BME280;58152;49.202;18.744;2023-04-22T03:05:41;97253.88;;;7.49;51.02
70589;BME280;58152;49.202;18.744;2023-04-22T03:08:07;97257.56;;;7.44;51.05
70589;BME280;58152;49.202;18.744;2023-04-22T03:10:32;97248.03;;;7.43;51.12
70589;BME280;58152;49.202;18.744;2023-04-22T03:12:58;97254.25;;;7.38;51.16
70589;BME280;58152;49.202;18.744;2023-04-22T03:15:23;97255.13;;;7.37;50.95
70589;BME280;58152;49.202;18.744;2023-04-22T03:17:48;97250.91;;;7.35;50.98
70589;BME280;58152;49.202;18.744;2023-04-22T03:20:15;97252.13;;;7.25;51.03
70589;BME280;58152;49.202;18.744;2023-04-22T03:22:40;97254.75;;;7.23;51.64
70589;BME280;58152;49.202;18.744;2023-04-22T03:25:09;97257.66;;;7.16;51.50
70589;BME280;58152;49.202;18.744;2023-04-22T03:27:35;97254.56;;;7.03;52.00
70589;BME280;58152;49.202;18.744;2023-04-22T03:30:01;97250.56;;;6.93;52.09
70589;BME280;58152;49.202;18.744;2023-04-22T03:32:27;97259.47;;;6.85;52.16
70589;BME280;58152;49.202;18.744;2023-04-22T03:34:52;97253.72;;;6.76;52.06
70589;BME280;58152;49.202;18.744;2023-04-22T03:37:17;97264.06;;;6.79;52.22
70589;BME280;58152;49.202;18.744;2023-04-22T03:39:43;97266.44;;;6.85;52.18
70589;BME280;58152;49.202;18.744;2023-04-22T03:42:10;97255.13;;;6.86;52.25
70589;BME280;58152;49.202;18.744;2023-04-22T03:44:35;97262.84;;;6.89;52.04
70589;BME280;58152;49.202;18.744;2023-04-22T03:47:01;97257.56;;;6.91;52.09
70589;BME280;58152;49.202;18.744;2023-04-22T03:49:26;97260.16;;;6.92;51.95
70589;BME280;58152;49.202;18.744;2023-04-22T03:51:51;97264.63;;;6.87;52.13
70589;BME280;58152;49.202;18.744;2023-04-22T03:54:17;97275.06;;;6.87;52.34
70589;BME280;58152;49.202;18.744;2023-04-22T03:56:43;97265.91;;;6.75;52.20
70589;BME280;58152;49.202;18.744;2023-04-22T03:59:08;97264.94;;;6.78;52.25
70589;BME280;58152;49.202;18.744;2023-04-22T04:01:34;97272.03;;;6.73;52.42
70589;BME280;58152;49.202;18.744;2023-04-22T04:04:00;97264.34;;;6.70;52.53
70589;BME280;58152;49.202;18.744;2023-04-22T04:06:26;97265.28;;;6.67;52.65
70589;BME280;58152;49.202;18.744;2023-04-22T04:08:52;97269.78;;;6.62;52.85
70589;BME280;58152;49.202;18.744;2023-04-22T04:11:18;97268.38;;;6.52;52.88
70589;BME280;58152;49.202;18.744;2023-04-22T04:13:43;97264.34;;;6.42;53.35
70589;BME280;58152;49.202;18.744;2023-04-22T04:16:16;97271.53;;;6.32;53.73
70589;BME280;58152;49.202;18.744;2023-04-22T04:18:45;97275.13;;;6.29;53.82
70589;BME280;58152;49.202;18.744;2023-04-22T04:21:13;97277.81;;;6.26;53.56
70589;BME280;58152;49.202;18.744;2023-04-22T04:23:38;97268.56;;;6.16;53.93
70589;BME280;58152;49.202;18.744;2023-04-22T04:26:04;97272.84;;;6.17;53.91
70589;BME280;58152;49.202;18.744;2023-04-22T04:28:30;97271.09;;;6.19;53.77
70589;BME280;58152;49.202;18.744;2023-04-22T04:30:58;97274.34;;;6.26;53.57
70589;BME280;58152;49.202;18.744;2023-04-22T04:33:23;97277.66;;;6.31;53.65
70589;BME280;58152;49.202;18.744;2023-04-22T04:36:16;97270.94;;;6.24;55.09
70589;BME280;58152;49.202;18.744;2023-04-22T04:38:41;97278.75;;;6.24;54.00
70589;BME280;58152;49.202;18.744;2023-04-22T04:41:06;97276.16;;;6.24;54.51
70589;BME280;58152;49.202;18.744;2023-04-22T04:43:33;97267.50;;;6.22;54.62
70589;BME280;58152;49.202;18.744;2023-04-22T04:46:02;97268.56;;;6.16;54.32
70589;BME280;58152;49.202;18.744;2023-04-22T04:48:34;97270.38;;;6.13;54.46
70589;BME280;58152;49.202;18.744;2023-04-22T04:51:00;97277.41;;;6.10;54.44
70589;BME280;58152;49.202;18.744;2023-04-22T04:53:25;97281.72;;;6.11;54.64
70589;BME280;58152;49.202;18.744;2023-04-22T04:55:52;97284.19;;;6.16;54.41
70589;BME280;58152;49.202;18.744;2023-04-22T04:58:19;97277.34;;;6.12;54.74
70589;BME280;58152;49.202;18.744;2023-04-22T05:00:47;97274.94;;;6.06;54.71
70589;BME280;58152;49.202;18.744;2023-04-22T05:03:19;97276.56;;;6.08;54.80
70589;BME280;58152;49.202;18.744;2023-04-22T05:05:46;97286.94;;;6.11;54.96
70589;BME280;58152;49.202;18.744;2023-04-22T05:08:14;97272.19;;;6.10;54.87
70589;BME280;58152;49.202;18.744;2023-04-22T05:10:43;97291.72;;;6.25;54.88
70589;BME280;58152;49.202;18.744;2023-04-22T05:13:14;97276.09;;;6.25;54.55
70589;BME280;58152;49.202;18.744;2023-04-22T05:15:47;97277.66;;;6.31;54.83
70589;BME280;58152;49.202;18.744;2023-04-22T05:18:14;97287.94;;;6.37;54.88
70589;BME280;58152;49.202;18.744;2023-04-22T05:27:49;97283.44;;;6.42;55.78
70589;BME280;58152;49.202;18.744;2023-04-22T05:30:17;97271.34;;;6.40;54.75
70589;BME280;58152;49.202;18.744;2023-04-22T05:32:43;97277.22;;;6.46;54.96
70589;BME280;58152;49.202;18.744;2023-04-22T05:35:09;97278.09;;;6.47;55.05
70589;BME280;58152;49.202;18.744;2023-04-22T05:37:41;97267.66;;;6.47;54.65
70589;BME280;58152;49.202;18.744;2023-04-22T05:40:07;97266.75;;;6.48;54.62
70589;BME280;58152;49.202;18.744;2023-04-22T05:42:33;97268.38;;;6.50;54.74
70589;BME280;58152;49.202;18.744;2023-04-22T05:44:59;97268.38;;;6.52;54.82
70589;BME280;58152;49.202;18.744;2023-04-22T05:47:24;97286.41;;;6.58;55.33
70589;BME280;58152;49.202;18.744;2023-04-22T05:49:55;97267.47;;;6.53;55.25
70589;BME280;58152;49.202;18.744;2023-04-22T05:52:22;97276.03;;;6.56;55.14
70589;BME280;58152;49.202;18.744;2023-04-22T05:54:47;97278.38;;;6.66;55.24
70589;BME280;58152;49.202;18.744;2023-04-22T05:57:23;97280.22;;;6.62;55.51
70589;BME280;58152;49.202;18.744;2023-04-22T05:59:51;97268.84;;;6.65;55.42
70589;BME280;58152;49.202;18.744;2023-04-22T06:02:17;97284.34;;;6.69;55.67
70589;BME280;58152;49.202;18.744;2023-04-22T06:04:48;97279.22;;;6.66;55.77
70589;BME280;58152;49.202;18.744;2023-04-22T06:07:13;97285.09;;;6.73;55.76
70589;BME280;58152;49.202;18.744;2023-04-22T06:09:58;97283.28;;;6.75;56.12
70589;BME280;58152;49.202;18.744;2023-04-22T06:12:55;97293.53;;;6.81;55.28
70589;BME280;58152;49.202;18.744;2023-04-22T06:15:24;97278.84;;;6.78;55.68
70589;BME280;58152;49.202;18.744;2023-04-22T06:17:53;97274.63;;;6.74;56.30
70589;BME280;58152;49.202;18.744;2023-04-22T06:20:18;97287.09;;;6.93;56.38
70589;BME280;58152;49.202;18.744;2023-04-22T06:22:47;97283.97;;;7.08;56.09
70589;BME280;58152;49.202;18.744;2023-04-22T06:25:13;97270.94;;;7.08;55.42
70589;BME280;58152;49.202;18.744;2023-04-22T06:27:39;97286.28;;;7.17;54.96
70589;BME280;58152;49.202;18.744;2023-04-22T06:30:08;97263.88;;;7.10;55.07
70589;BME280;58152;49.202;18.744;2023-04-22T06:32:36;97263.88;;;7.10;54.85
70589;BME280;58152;49.202;18.744;2023-04-22T06:35:14;97267.47;;;7.07;55.47
70589;BME280;58152;49.202;18.744;2023-04-22T06:37:47;97267.38;;;7.10;55.55
70589;BME280;58152;49.202;18.744;2023-04-22T06:40:15;97269.94;;;7.12;55.44
70589;BME280;58152;49.202;18.744;2023-04-22T06:42:41;97270.63;;;7.17;55.60
70589;BME280;58152;49.202;18.744;2023-04-22T06:45:06;97272.28;;;7.20;55.63
70589;BME280;58152;49.202;18.744;2023-04-22T06:47:45;97268.94;;;7.16;55.98
70589;BME280;58152;49.202;18.744;2023-04-22T06:50:14;97263.50;;;7.22;55.43
70589;BME280;58152;49.202;18.744;2023-04-22T06:52:39;97268.63;;;7.25;55.38
70589;BME280;58152;49.202;18.744;2023-04-22T06:55:05;97265.00;;;7.29;55.53
70589;BME280;58152;49.202;18.744;2023-04-22T06:57:30;97257.91;;;7.33;55.27
70589;BME280;58152;49.202;18.744;2023-04-22T06:59:58;97249.22;;;7.32;54.98
70589;BME280;58152;49.202;18.744;2023-04-22T07:02:26;97262.03;;;7.40;54.94
70589;BME280;58152;49.202;18.744;2023-04-22T07:04:52;97264.47;;;7.45;55.64
70589;BME280;58152;49.202;18.744;2023-04-22T07:07:17;97260.03;;;7.47;55.31
70589;BME280;58152;49.202;18.744;2023-04-22T07:09:43;97264.09;;;7.55;55.24
70589;BME280;58152;49.202;18.744;2023-04-22T07:12:08;97254.50;;;7.56;55.59
70589;BME280;58152;49.202;18.744;2023-04-22T07:14:33;97251.63;;;7.63;55.54
70589;BME280;58152;49.202;18.744;2023-04-22T07:16:59;97256.69;;;7.68;55.42
70589;BME280;58152;49.202;18.744;2023-04-22T07:19:26;97259.81;;;7.78;55.47
70589;BME280;58152;49.202;18.744;2023-04-22T07:21:51;97250.38;;;7.75;55.28
70589;BME280;58152;49.202;18.744;2023-04-22T07:24:16;97250.94;;;7.83;54.82
70589;BME280;58152;49.202;18.744;2023-04-22T07:26:43;97247.34;;;7.86;54.73
70589;BME280;58152;49.202;18.744;2023-04-22T07:29:09;97248.28;;;7.85;54.95
70589;BME280;58152;49.202;18.744;2023-04-22T07:31:35;97247.13;;;7.92;54.79
70589;BME280;58152;49.202;18.744;2023-04-22T07:34:01;97236.63;;;7.94;55.48
70589;BME280;58152;49.202;18.744;2023-04-22T07:36:27;97254.59;;;8.03;55.70
70589;BME280;58152;49.202;18.744;2023-04-22T07:38:52;97240.69;;;8.02;55.43
70589;BME280;58152;49.202;18.744;2023-04-22T07:41:18;97249.03;;;8.12;55.16
70589;BME280;58152;49.202;18.744;2023-04-22T07:43:43;97241.94;;;8.15;55.29
70589;BME280;58152;49.202;18.744;2023-04-22T07:46:09;97242.63;;;8.19;55.35
70589;BME280;58152;49.202;18.744;2023-04-22T07:48:34;97247.59;;;8.27;55.07
70589;BME280;58152;49.202;18.744;2023-04-22T07:51:00;97243.88;;;8.32;55.40
70589;BME280;58152;49.202;18.744;2023-04-22T07:53:26;97231.47;;;8.39;55.10
70589;BME280;58152;49.202;18.744;2023-04-22T07:55:51;97237.41;;;8.43;54.79
70589;BME280;58152;49.202;18.744;2023-04-22T07:58:17;97237.25;;;8.47;54.89
70589;BME280;58152;49.202;18.744;2023-04-22T08:00:42;97228.38;;;8.51;54.78
70589;BME280;58152;49.202;18.744;2023-04-22T08:03:08;97234.25;;;8.56;54.64
70589;BME280;58152;49.202;18.744;2023-04-22T08:05:33;97235.81;;;8.62;54.33
70589;BME280;58152;49.202;18.744;2023-04-22T08:07:58;97232.84;;;8.71;54.44
70589;BME280;58152;49.202;18.744;2023-04-22T08:10:24;97224.91;;;8.73;54.43
70589;BME280;58152;49.202;18.744;2023-04-22T08:12:50;97233.31;;;8.81;54.32
70589;BME280;58152;49.202;18.744;2023-04-22T08:15:15;97225.31;;;8.84;54.76
70589;BME280;58152;49.202;18.744;2023-04-22T08:17:41;97222.47;;;8.90;54.15
70589;BME280;58152;49.202;18.744;2023-04-22T08:20:07;97233.31;;;9.03;54.64
70589;BME280;58152;49.202;18.744;2023-04-22T08:22:33;97227.16;;;9.04;54.63
70589;BME280;58152;49.202;18.744;2023-04-22T08:24:59;97234.63;;;9.13;54.26
70589;BME280;58152;49.202;18.744;2023-04-22T08:27:24;97236.97;;;9.19;53.73
70589;BME280;58152;49.202;18.744;2023-04-22T08:29:50;97240.41;;;9.21;53.88
70589;BME280;58152;49.202;18.744;2023-04-22T08:32:15;97239.13;;;9.30;54.10
70589;BME280;58152;49.202;18.744;2023-04-22T08:34:43;97235.44;;;9.35;54.14
70589;BME280;58152;49.202;18.744;2023-04-22T08:37:09;97237.69;;;9.43;53.96
70589;BME280;58152;49.202;18.744;2023-04-22T08:39:34;97222.91;;;9.42;53.45
70589;BME280;58152;49.202;18.744;2023-04-22T08:42:00;97229.53;;;9.51;53.75
70589;BME280;58152;49.202;18.744;2023-04-22T08:44:26;97220.63;;;9.55;53.35
70589;BME280;58152;49.202;18.744;2023-04-22T08:46:53;97219.38;;;9.63;53.63
70589;BME280;58152;49.202;18.744;2023-04-22T08:49:22;97207.84;;;9.67;53.41
70589;BME280;58152;49.202;18.744;2023-04-22T08:51:48;97215.31;;;9.77;53.34
70589;BME280;58152;49.202;18.744;2023-04-22T08:54:14;97207.28;;;9.80;53.05
70589;BME280;58152;49.202;18.744;2023-04-22T08:56:43;97214.75;;;9.89;52.68
70589;BME280;58152;49.202;18.744;2023-04-22T08:59:11;97203.38;;;9.90;52.25
70589;BME280;58152;49.202;18.744;2023-04-22T09:01:40;97208.88;;;10.03;51.74
70589;BME280;58152;49.202;18.744;2023-04-22T09:04:08;97206.00;;;10.09;51.37
70589;BME280;58152;49.202;18.744;2023-04-22T09:06:34;97191.84;;;10.13;51.29
70589;BME280;58152;49.202;18.744;2023-04-22T09:09:00;97207.81;;;10.27;50.82
70589;BME280;58152;49.202;18.744;2023-04-22T09:11:27;97199.78;;;10.30;51.27
70589;BME280;58152;49.202;18.744;2023-04-22T09:13:56;97203.91;;;10.36;50.76
70589;BME280;58152;49.202;18.744;2023-04-22T09:16:21;97205.31;;;10.43;50.60
70589;BME280;58152;49.202;18.744;2023-04-22T09:18:47;97193.03;;;10.43;50.40
70589;BME280;58152;49.202;18.744;2023-04-22T09:21:12;97196.16;;;10.52;50.30
70589;BME280;58152;49.202;18.744;2023-04-22T09:23:50;97191.53;;;10.57;49.67
70589;BME280;58152;49.202;18.744;2023-04-22T09:26:24;97201.66;;;10.64;49.52
70589;BME280;58152;49.202;18.744;2023-04-22T09:28:57;97196.06;;;10.72;50.48
70589;BME280;58152;49.202;18.744;2023-04-22T09:31:24;97200.78;;;10.83;50.06
70589;BME280;58152;49.202;18.744;2023-04-22T09:33:50;97200.34;;;10.92;50.01
70589;BME280;58152;49.202;18.744;2023-04-22T09:36:16;97193.69;;;11.02;49.26
70589;BME280;58152;49.202;18.744;2023-04-22T09:38:51;97197.31;;;11.17;49.70
70589;BME280;58152;49.202;18.744;2023-04-22T09:41:17;97188.13;;;11.26;49.72
70589;BME280;58152;49.202;18.744;2023-04-22T09:43:42;97184.13;;;11.36;48.71
70589;BME280;58152;49.202;18.744;2023-04-22T09:46:09;97179.25;;;11.45;47.96
70589;BME280;58152;49.202;18.744;2023-04-22T09:48:41;97170.97;;;11.53;47.80
70589;BME280;58152;49.202;18.744;2023-04-22T09:51:14;97180.50;;;11.71;47.67
70589;BME280;58152;49.202;18.744;2023-04-22T09:53:41;97176.25;;;11.86;46.96
70589;BME280;58152;49.202;18.744;2023-04-22T09:56:06;97160.44;;;12.04;46.75
70589;BME280;58152;49.202;18.744;2023-04-22T09:58:37;97171.22;;;12.31;46.25
70589;BME280;58152;49.202;18.744;2023-04-22T10:01:03;97163.25;;;12.48;46.10
70589;BME280;58152;49.202;18.744;2023-04-22T10:03:29;97155.84;;;12.70;45.90
70589;BME280;58152;49.202;18.744;2023-04-22T10:05:56;97152.06;;;12.90;45.88
70589;BME280;58152;49.202;18.744;2023-04-22T10:08:22;97166.19;;;13.19;45.18
70589;BME280;58152;49.202;18.744;2023-04-22T10:10:47;97157.22;;;13.38;44.51
70589;BME280;58152;49.202;18.744;2023-04-22T10:13:13;97145.31;;;13.61;43.74
70589;BME280;58152;49.202;18.744;2023-04-22T10:15:41;97137.00;;;13.81;43.47
70589;BME280;58152;49.202;18.744;2023-04-22T10:18:11;97140.84;;;14.04;43.32
70589;BME280;58152;49.202;18.744;2023-04-22T10:20:38;97139.41;;;14.27;43.94
70589;BME280;58152;49.202;18.744;2023-04-22T10:23:06;97132.84;;;14.47;42.62
70589;BME280;58152;49.202;18.744;2023-04-22T10:25:38;97141.44;;;14.78;42.13
70589;BME280;58152;49.202;18.744;2023-04-22T10:28:08;97132.50;;;14.93;42.06
70589;BME280;58152;49.202;18.744;2023-04-22T10:30:38;97121.47;;;15.13;41.33
70589;BME280;58152;49.202;18.744;2023-04-22T10:41:05;97124.25;;;15.37;41.87
70589;BME280;58152;49.202;18.744;2023-04-22T10:43:44;97123.59;;;15.34;41.56
70589;BME280;58152;49.202;18.744;2023-04-22T10:49:17;97112.16;;;16.22;39.64
70589;BME280;58152;49.202;18.744;2023-04-22T10:51:49;97095.88;;;16.40;40.34
70589;BME280;58152;49.202;18.744;2023-04-22T10:57:11;97106.28;;;16.91;37.56
70589;BME280;58152;49.202;18.744;2023-04-22T10:59:44;97105.06;;;17.19;38.51
70589;BME280;58152;49.202;18.744;2023-04-22T11:02:12;97099.28;;;17.36;38.96
70589;BME280;58152;49.202;18.744;2023-04-22T11:04:38;97091.59;;;17.44;38.14
70589;BME280;58152;49.202;18.744;2023-04-22T11:09:40;97100.13;;;17.83;37.23
70589;BME280;58152;49.202;18.744;2023-04-22T11:15:14;97098.63;;;18.13;35.26
70589;BME280;58152;49.202;18.744;2023-04-22T11:17:47;97092.13;;;18.28;35.59
70589;BME280;58152;49.202;18.744;2023-04-22T11:20:13;97092.78;;;18.41;36.06
70589;BME280;58152;49.202;18.744;2023-04-22T11:22:47;97087.94;;;18.58;34.67
70589;BME280;58152;49.202;18.744;2023-04-22T11:25:12;97087.88;;;18.80;34.40
70589;BME280;58152;49.202;18.744;2023-04-22T11:27:39;97081.81;;;18.89;34.21
70589;BME280;58152;49.202;18.744;2023-04-22T11:32:41;97069.94;;;19.14;35.37
70589;BME280;58152;49.202;18.744;2023-04-22T11:35:19;97080.59;;;19.35;34.23
70589;BME280;58152;49.202;18.744;2023-04-22T11:37:50;97081.25;;;19.48;33.61
70589;BME280;58152;49.202;18.744;2023-04-22T11:40:27;97095.78;;;19.65;33.71
70589;BME280;58152;49.202;18.744;2023-04-22T11:42:54;97075.66;;;19.72;33.36
70589;BME280;58152;49.202;18.744;2023-04-22T11:45:20;97086.09;;;19.85;33.13
70589;BME280;58152;49.202;18.744;2023-04-22T11:47:47;97080.22;;;19.91;33.02
70589;BME280;58152;49.202;18.744;2023-04-22T11:50:17;97076.75;;;20.00;33.09
70589;BME280;58152;49.202;18.744;2023-04-22T11:52:48;97080.47;;;19.88;33.27
70589;BME280;58152;49.202;18.744;2023-04-22T11:55:22;97068.72;;;19.60;33.46
70589;BME280;58152;49.202;18.744;2023-04-22T11:58:05;97072.19;;;19.82;33.25
70589;BME280;58152;49.202;18.744;2023-04-22T12:00:34;97086.94;;;20.26;33.16
70589;BME280;58152;49.202;18.744;2023-04-22T12:06:16;97063.75;;;20.67;32.20
70589;BME280;58152;49.202;18.744;2023-04-22T12:08:44;97077.50;;;20.91;31.95
70589;BME280;58152;49.202;18.744;2023-04-22T12:11:12;97058.13;;;21.09;31.89
70589;BME280;58152;49.202;18.744;2023-04-22T12:16:05;97057.38;;;21.55;30.87
70589;BME280;58152;49.202;18.744;2023-04-22T12:18:51;97052.41;;;21.70;31.00
70589;BME280;58152;49.202;18.744;2023-04-22T12:21:35;97047.03;;;21.79;29.17
70589;BME280;58152;49.202;18.744;2023-04-22T12:24:06;97051.44;;;21.98;30.72
70589;BME280;58152;49.202;18.744;2023-04-22T12:26:32;97037.75;;;22.11;30.35
70589;BME280;58152;49.202;18.744;2023-04-22T12:29:01;97044.44;;;22.25;29.49
70589;BME280;58152;49.202;18.744;2023-04-22T12:31:27;97043.38;;;22.36;29.96
70589;BME280;58152;49.202;18.744;2023-04-22T12:33:52;97048.75;;;22.53;29.86
70589;BME280;58152;49.202;18.744;2023-04-22T12:36:18;97033.56;;;22.72;28.92
70589;BME280;58152;49.202;18.744;2023-04-22T12:38:48;97037.06;;;22.72;29.41
70589;BME280;58152;49.202;18.744;2023-04-22T12:41:13;97035.25;;;22.91;29.32
70589;BME280;58152;49.202;18.744;2023-04-22T12:43:40;97025.66;;;22.98;28.62
70589;BME280;58152;49.202;18.744;2023-04-22T12:46:06;97038.84;;;23.17;28.09
70589;BME280;58152;49.202;18.744;2023-04-22T12:48:35;97027.91;;;23.28;28.17
70589;BME280;58152;49.202;18.744;2023-04-22T12:51:04;97031.84;;;23.42;28.21
70589;BME280;58152;49.202;18.744;2023-04-22T12:53:30;97020.84;;;23.53;27.67
70589;BME280;58152;49.202;18.744;2023-04-22T12:55:56;97023.50;;;23.71;27.49
70589;BME280;58152;49.202;18.744;2023-04-22T12:58:33;97023.59;;;23.88;27.25
70589;BME280;58152;49.202;18.744;2023-04-22T16:14:18;96959.78;;;23.91;23.20
70589;BME280;58152;49.202;18.744;2023-04-22T16:34:06;96952.03;;;23.72;24.66
70589;BME280;58152;49.202;18.744;2023-04-22T16:56:45;96951.03;;;22.95;25.20
70589;BME280;58152;49.202;18.744;2023-04-22T16:59:11;96944.03;;;22.76;26.62
70589;BME280;58152;49.202;18.744;2023-04-22T17:01:44;96949.38;;;22.76;26.65
70589;BME280;58152;49.202;18.744;2023-04-22T17:04:44;96942.53;;;22.73;25.58
70589;BME280;58152;49.202;18.744;2023-04-22T17:07:20;96950.31;;;22.67;26.33
70589;BME280;58152;49.202;18.744;2023-04-22T17:09:46;96939.63;;;22.49;26.44
70589;BME280;58152;49.202;18.744;2023-04-22T17:12:13;96943.69;;;22.35;26.58
70589;BME280;58152;49.202;18.744;2023-04-22T17:14:39;96931.22;;;22.26;26.90
70589;BME280;58152;49.202;18.744;2023-04-22T17:17:10;96943.38;;;22.20;26.48
70589;BME280;58152;49.202;18.744;2023-04-22T17:19:42;96937.69;;;22.05;26.71
70589;BME280;58152;49.202;18.744;2023-04-22T17:22:07;96944.09;;;21.95;26.92
70589;BME280;58152;49.202;18.744;2023-04-22T17:24:34;96941.91;;;21.80;26.93